Time;durP1;ratioP1;P1;durP2;ratioP2;P2;SDS_P1;SDS_P2;PMS_P1;PMS_P2;Temp;Humidity;BMP_temperature;BMP_pressure;BME280_temperature;BME280_humidity;BME280_pressure;Samples;Min_cycle;Max_cycle;Signal;HPM_P1;HPM_P2
2022/11/28 00:01:05;;;;;;;14.57;7.35;;;;;;;;;;4918718;29;20050;-82
2022/11/28 00:03:30;;;;;;;13.38;6.95;;;;;;;;;;4935056;29;20031;-83
2022/11/28 00:05:56;;;;;;;14.18;6.75;;;;;;;;;;4922663;28;20430;-83
2022/11/28 00:08:24;;;;;;;12.68;6.53;;;;;;;;;;4934522;28;20439;-83
2022/11/28 00:10:49;;;;;;;15.48;7.35;;;;;;;;;;4933724;29;21154;-83
2022/11/28 00:13:14;;;;;;;12.23;6.40;;;;;;;;;;4917952;29;20039;-84
2022/11/28 00:15:40;;;;;;;13.40;7.55;;;;;;;;;;4919805;29;20452;-83
2022/11/28 00:18:05;;;;;;;13.63;7.35;;;;;;;;;;4942066;28;20395;-84
2022/11/28 00:20:31;;;;;;;13.98;6.57;;;;;;;;;;4921887;28;20042;-83
2022/11/28 00:22:56;;;;;;;15.02;7.60;;;;;;;;;;4912868;28;20522;-83
2022/11/28 00:25:22;;;;;;;13.77;7.30;;;;;;;;;;4917999;29;20119;-83
2022/11/28 00:27:47;;;;;;;12.75;7.10;;;;;;;;;;4917558;29;20028;-83
2022/11/28 00:30:13;;;;;;;15.13;7.55;;;;;;;;;;4915938;29;20044;-84
2022/11/28 00:32:38;;;;;;;13.80;7.20;;;;;;;;;;4915662;29;20050;-83
2022/11/28 00:35:04;;;;;;;12.60;6.65;;;;;;;;;;4917176;29;20067;-83
2022/11/28 00:37:30;;;;;;;15.40;6.95;;;;;;;;;;4931198;29;20087;-84
2022/11/28 00:39:55;;;;;;;13.60;7.28;;;;;;;;;;4935685;29;20487;-84
2022/11/28 00:42:21;;;;;;;14.18;7.00;;;;;;;;;;4931513;28;20067;-84
2022/11/28 00:44:47;;;;;;;15.50;7.15;;;;;;;;;;4937163;29;20044;-83
2022/11/28 00:47:13;;;;;;;15.13;7.75;;;;;;;;;;4932853;28;20059;-83
2022/11/28 00:49:39;;;;;;;13.20;6.95;;;;;;;;;;4905181;29;20039;-83
2022/11/28 00:52:04;;;;;;;14.23;7.43;;;;;;;;;;4920236;29;20044;-83
2022/11/28 00:54:29;;;;;;;12.27;6.95;;;;;;;;;;4934273;28;20031;-83
2022/11/28 00:56:55;;;;;;;13.00;7.07;;;;;;;;;;4918187;28;20487;-83
2022/11/28 00:59:20;;;;;;;15.38;7.45;;;;;;;;;;4950186;28;20038;-83
2022/11/28 01:01:46;;;;;;;17.27;7.43;;;;;;;;;;4916881;29;20036;-83
2022/11/28 01:04:13;;;;;;;15.50;6.82;;;;;;;;;;4917114;29;20114;-83
2022/11/28 01:06:49;;;;;;;15.48;7.80;;;;;;;;;;4916956;29;20377;-83
2022/11/28 01:09:20;;;;;;;15.57;7.45;;;;;;;;;;4932079;29;20051;-83
2022/11/28 01:11:48;;;;;;;14.70;7.63;;;;;;;;;;4930642;28;20032;-83
2022/11/28 01:14:14;;;;;;;12.38;6.78;;;;;;;;;;4916596;29;20495;-83
2022/11/28 01:16:39;;;;;;;14.23;7.50;;;;;;;;;;4932241;29;20042;-83
2022/11/28 01:19:05;;;;;;;17.27;7.97;;;;;;;;;;4921025;29;20059;-83
2022/11/28 01:21:30;;;;;;;14.73;7.70;;;;;;;;;;4932346;29;20385;-83
2022/11/28 01:23:56;;;;;;;17.65;8.40;;;;;;;;;;4949615;28;20805;-83
2022/11/28 01:26:25;;;;;;;14.20;7.60;;;;;;;;;;4933660;28;20057;-82
2022/11/28 01:28:51;;;;;;;15.50;7.90;;;;;;;;;;4932291;29;20098;-83
2022/11/28 01:31:18;;;;;;;16.42;7.85;;;;;;;;;;4917263;29;20039;-83
2022/11/28 01:33:44;;;;;;;15.95;7.45;;;;;;;;;;4931225;29;20130;-82
2022/11/28 01:36:11;;;;;;;19.15;8.88;;;;;;;;;;4916371;28;20468;-83
2022/11/28 01:38:36;;;;;;;14.48;8.05;;;;;;;;;;4919887;29;20126;-83
2022/11/28 01:41:05;;;;;;;17.85;8.25;;;;;;;;;;4919476;28;20170;-83
2022/11/28 01:43:30;;;;;;;18.30;9.18;;;;;;;;;;4935050;29;20114;-82
2022/11/28 01:45:56;;;;;;;16.58;8.48;;;;;;;;;;4930142;29;20153;-83
2022/11/28 01:48:31;;;;;;;17.13;9.27;;;;;;;;;;4915831;29;20046;-83
2022/11/28 01:51:01;;;;;;;18.80;9.55;;;;;;;;;;4933952;28;20028;-83
2022/11/28 01:53:30;;;;;;;16.13;9.23;;;;;;;;;;4929670;28;20036;-83
2022/11/28 01:56:04;;;;;;;15.40;9.02;;;;;;;;;;4914699;29;20054;-83
2022/11/28 01:58:31;;;;;;;16.98;9.07;;;;;;;;;;4933575;28;20899;-82
2022/11/28 02:00:57;;;;;;;16.80;8.50;;;;;;;;;;4918632;29;20032;-83
2022/11/28 02:03:26;;;;;;;14.95;8.80;;;;;;;;;;4933650;29;20111;-83
2022/11/28 02:05:52;;;;;;;16.02;8.68;;;;;;;;;;4919682;29;20430;-82
2022/11/28 02:08:18;;;;;;;18.38;8.40;;;;;;;;;;4915777;29;20039;-82
2022/11/28 02:10:43;;;;;;;16.65;9.23;;;;;;;;;;4915601;29;20442;-82
2022/11/28 02:13:17;;;;;;;17.00;8.48;;;;;;;;;;4933821;28;20078;-82
2022/11/28 02:16:13;;;;;;;16.73;8.40;;;;;;;;;;4928360;29;20040;-82
2022/11/28 02:18:58;;;;;;;19.00;9.13;;;;;;;;;;4929084;29;20519;-84
2022/11/28 02:22:00;;;;;;;16.55;8.63;;;;;;;;;;4947422;28;20083;-83
2022/11/28 02:24:47;;;;;;;15.55;8.68;;;;;;;;;;4895631;29;20065;-83
2022/11/28 02:27:37;;;;;;;15.32;8.55;;;;;;;;;;4946345;28;20466;-82
2022/11/28 02:30:20;;;;;;;16.90;8.20;;;;;;;;;;4918934;29;20034;-82
2022/11/28 02:33:17;;;;;;;17.38;8.43;;;;;;;;;;4944275;28;20138;-82
2022/11/28 02:35:42;;;;;;;18.08;9.07;;;;;;;;;;4915976;28;20031;-82
2022/11/28 02:38:13;;;;;;;14.80;8.23;;;;;;;;;;4946468;28;20497;-82
2022/11/28 02:40:59;;;;;;;15.70;8.50;;;;;;;;;;4933431;28;20039;-82
2022/11/28 02:43:31;;;;;;;16.48;8.23;;;;;;;;;;4911684;28;20032;-82
2022/11/28 02:46:26;;;;;;;15.57;8.48;;;;;;;;;;4931473;28;20044;-82
2022/11/28 02:49:02;;;;;;;14.93;8.30;;;;;;;;;;4916273;28;20035;-82
2022/11/28 02:51:35;;;;;;;15.88;7.88;;;;;;;;;;4931612;29;20047;-83
2022/11/28 02:54:02;;;;;;;17.83;8.77;;;;;;;;;;4915901;29;20409;-82
2022/11/28 02:56:28;;;;;;;16.33;8.35;;;;;;;;;;4913273;29;20047;-82
2022/11/28 02:58:53;;;;;;;15.20;8.48;;;;;;;;;;4930218;29;20075;-82
2022/11/28 03:01:27;;;;;;;13.85;7.93;;;;;;;;;;4917118;29;20032;-83
2022/11/28 03:04:34;;;;;;;16.35;8.15;;;;;;;;;;4914284;29;21134;-82
2022/11/28 03:07:11;;;;;;;15.57;7.85;;;;;;;;;;4921019;28;20147;-81
2022/11/28 03:09:45;;;;;;;15.02;8.10;;;;;;;;;;4943686;28;20040;-81
2022/11/28 03:12:41;;;;;;;17.20;8.32;;;;;;;;;;4945433;28;20055;-84
2022/11/28 03:15:08;;;;;;;14.75;7.93;;;;;;;;;;4948896;28;20050;-83
2022/11/28 03:17:52;;;;;;;14.10;7.78;;;;;;;;;;4929826;29;20130;-83
2022/11/28 03:20:49;;;;;;;16.67;8.23;;;;;;;;;;4929275;28;20050;-83
2022/11/28 03:23:16;;;;;;;;;;;;;;;;;;4937401;28;20090;-82
2022/11/28 03:25:57;;;;;;;15.30;7.00;;;;;;;;;;4945361;28;19942;-83
2022/11/28 03:28:32;;;;;;;14.00;7.40;;;;;;;;;;4914218;29;20043;-83
2022/11/28 03:31:00;;;;;;;15.52;8.30;;;;;;;;;;4930554;28;20036;-83
2022/11/28 03:33:30;;;;;;;16.45;7.93;;;;;;;;;;4945993;28;20162;-83
2022/11/28 03:36:00;;;;;;;15.65;7.25;;;;;;;;;;4920044;28;20027;-82
2022/11/28 03:38:39;;;;;;;15.18;7.25;;;;;;;;;;4917766;28;20090;-82
2022/11/28 03:41:28;;;;;;;14.25;7.22;;;;;;;;;;4918636;29;20067;-82
2022/11/28 03:43:56;;;;;;;13.25;7.25;;;;;;;;;;4917430;28;20072;-84
2022/11/28 03:46:22;;;;;;;17.00;8.23;;;;;;;;;;4919949;29;20043;-85
2022/11/28 03:48:51;;;;;;;13.95;7.13;;;;;;;;;;4946038;28;20035;-84
2022/11/28 03:51:30;;;;;;;15.15;7.82;;;;;;;;;;4920902;29;20032;-85
2022/11/28 03:54:00;;;;;;;14.82;7.53;;;;;;;;;;4918256;29;20047;-84
2022/11/28 03:56:31;;;;;;;15.23;8.02;;;;;;;;;;4916050;29;20038;-85
2022/11/28 03:59:13;;;;;;;16.05;7.82;;;;;;;;;;4951808;28;20518;-85
2022/11/28 04:02:17;;;;;;;12.90;7.60;;;;;;;;;;4916287;29;20035;-84
2022/11/28 04:04:49;;;;;;;14.45;7.53;;;;;;;;;;4857023;29;20036;-84
2022/11/28 04:07:24;;;;;;;13.63;7.28;;;;;;;;;;4860493;29;20543;-85
2022/11/28 04:10:17;;;;;;;14.68;7.72;;;;;;;;;;4905265;29;20447;-85
2022/11/28 04:13:02;;;;;;;16.10;6.78;;;;;;;;;;4929956;29;20175;-85
2022/11/28 04:15:31;;;;;;;14.43;6.88;;;;;;;;;;4900908;29;20516;-86
2022/11/28 04:18:22;;;;;;;16.08;7.68;;;;;;;;;;4930018;28;20433;-85
2022/11/28 04:20:48;;;;;;;15.45;8.43;;;;;;;;;;4944596;28;20578;-85
2022/11/28 04:23:17;;;;;;;15.57;8.07;;;;;;;;;;4920126;29;20466;-86
2022/11/28 04:25:50;;;;;;;15.38;7.95;;;;;;;;;;4905146;29;20590;-86
2022/11/28 04:28:20;;;;;;;17.10;8.38;;;;;;;;;;4915586;29;20478;-86
2022/11/28 04:30:47;;;;;;;16.58;7.57;;;;;;;;;;4922478;29;20063;-87
2022/11/28 04:33:13;;;;;;;16.02;8.00;;;;;;;;;;4918715;28;20550;-86
2022/11/28 04:35:41;;;;;;;15.45;7.70;;;;;;;;;;4917230;28;20031;-87
2022/11/28 04:38:08;;;;;;;16.85;8.25;;;;;;;;;;4916084;29;20042;-87
2022/11/28 04:40:46;;;;;;;16.02;7.70;;;;;;;;;;4933893;29;20043;-86
2022/11/28 04:43:29;;;;;;;16.10;7.85;;;;;;;;;;4914885;29;20416;-87
2022/11/28 04:46:08;;;;;;;16.75;8.13;;;;;;;;;;4935788;28;20533;-87
2022/11/28 04:48:34;;;;;;;15.52;7.72;;;;;;;;;;4933552;28;20082;-87
2022/11/28 04:51:15;;;;;;;16.38;7.88;;;;;;;;;;4920415;29;20063;-87
2022/11/28 04:54:00;;;;;;;15.93;7.38;;;;;;;;;;4921007;29;20598;-86
2022/11/28 04:56:31;;;;;;;14.75;6.95;;;;;;;;;;4935421;29;20036;-86
2022/11/28 04:58:57;;;;;;;17.27;8.77;;;;;;;;;;4916488;29;20126;-86
2022/11/28 05:01:24;;;;;;;15.35;7.55;;;;;;;;;;4935575;28;20039;-86
2022/11/28 05:03:50;;;;;;;15.52;7.70;;;;;;;;;;4932097;28;20044;-86
2022/11/28 05:06:24;;;;;;;17.17;7.95;;;;;;;;;;4922890;29;20047;-86
2022/11/28 05:08:49;;;;;;;15.52;7.95;;;;;;;;;;4912833;28;20585;-85
2022/11/28 05:11:14;;;;;;;15.57;7.97;;;;;;;;;;4932978;28;20159;-86
2022/11/28 05:13:40;;;;;;;16.15;7.68;;;;;;;;;;4919481;29;20044;-85
2022/11/28 05:16:06;;;;;;;14.07;8.23;;;;;;;;;;4936364;29;20035;-85
2022/11/28 05:18:31;;;;;;;14.23;7.72;;;;;;;;;;4917978;28;20488;-85
2022/11/28 05:21:00;;;;;;;16.33;7.88;;;;;;;;;;4920893;29;20036;-85
2022/11/28 05:23:25;;;;;;;16.75;8.05;;;;;;;;;;4936782;28;20043;-85
2022/11/28 05:25:51;;;;;;;13.60;7.43;;;;;;;;;;4920131;29;20046;-85
2022/11/28 05:28:16;;;;;;;14.95;7.47;;;;;;;;;;4915950;29;20041;-85
2022/11/28 05:30:41;;;;;;;15.52;7.68;;;;;;;;;;4933626;29;20036;-84
2022/11/28 05:33:07;;;;;;;15.68;7.65;;;;;;;;;;4916424;29;20114;-84
2022/11/28 05:35:32;;;;;;;14.02;6.95;;;;;;;;;;4926138;28;20115;-85
2022/11/28 05:37:57;;;;;;;13.18;6.97;;;;;;;;;;4929958;29;20504;-85
2022/11/28 05:40:23;;;;;;;17.13;8.50;;;;;;;;;;4917077;29;20039;-85
2022/11/28 05:42:50;;;;;;;12.43;6.57;;;;;;;;;;4931365;29;20039;-85
2022/11/28 05:45:16;;;;;;;;;;;;;;;;;;4948002;28;20557;-85
2022/11/28 05:47:41;;;;;;;14.98;6.80;;;;;;;;;;4916964;28;19915;-85
2022/11/28 05:50:27;;;;;;;14.38;7.88;;;;;;;;;;4918439;28;20383;-83
2022/11/28 05:52:52;;;;;;;15.23;7.95;;;;;;;;;;4875420;29;20075;-83
2022/11/28 05:55:38;;;;;;;17.80;8.00;;;;;;;;;;4855799;29;20496;-83
2022/11/28 05:58:03;;;;;;;13.55;7.05;;;;;;;;;;4834635;29;20891;-83
2022/11/28 06:00:31;;;;;;;18.33;8.10;;;;;;;;;;4807872;29;20102;-83
2022/11/28 06:02:57;;;;;;;14.35;7.50;;;;;;;;;;4819407;29;20041;-83
2022/11/28 06:05:23;;;;;;;17.05;7.13;;;;;;;;;;4801281;29;20167;-83
2022/11/28 06:07:49;;;;;;;13.55;7.28;;;;;;;;;;4820276;29;20038;-83
2022/11/28 06:10:14;;;;;;;16.83;7.90;;;;;;;;;;4820072;29;20130;-83
2022/11/28 06:12:40;;;;;;;16.27;7.70;;;;;;;;;;4838750;29;20049;-84
2022/11/28 06:15:06;;;;;;;15.30;7.55;;;;;;;;;;4833928;29;20407;-85
2022/11/28 06:17:31;;;;;;;14.30;7.40;;;;;;;;;;4821302;29;20105;-84
2022/11/28 06:19:57;;;;;;;14.77;7.80;;;;;;;;;;4820526;29;20044;-85
2022/11/28 06:22:22;;;;;;;14.60;7.35;;;;;;;;;;4823340;29;20057;-85
2022/11/28 06:24:48;;;;;;;13.60;7.20;;;;;;;;;;4801359;29;20046;-84
2022/11/28 06:27:14;;;;;;;15.52;7.65;;;;;;;;;;4818110;29;20668;-85
2022/11/28 06:29:39;;;;;;;16.05;7.80;;;;;;;;;;4851439;29;20112;-84
2022/11/28 06:32:04;;;;;;;16.48;7.90;;;;;;;;;;4841490;29;20124;-85
2022/11/28 06:34:31;;;;;;;17.35;8.93;;;;;;;;;;4856159;28;20036;-84
2022/11/28 06:36:57;;;;;;;24.65;11.43;;;;;;;;;;4929688;29;20038;-85
2022/11/28 06:39:22;;;;;;;16.08;8.02;;;;;;;;;;4913395;28;20040;-84
2022/11/28 06:41:47;;;;;;;18.35;8.05;;;;;;;;;;4931741;28;20035;-85
2022/11/28 06:44:14;;;;;;;17.58;8.45;;;;;;;;;;4929024;29;20036;-83
2022/11/28 06:46:40;;;;;;;14.90;7.37;;;;;;;;;;4918375;29;20047;-83
2022/11/28 06:49:06;;;;;;;17.40;8.57;;;;;;;;;;4914946;29;20044;-84
2022/11/28 06:51:31;;;;;;;17.40;8.88;;;;;;;;;;4930497;29;20036;-83
2022/11/28 06:53:59;;;;;;;16.17;7.85;;;;;;;;;;4922220;28;20078;-84
2022/11/28 06:56:25;;;;;;;14.57;7.82;;;;;;;;;;4917232;29;20042;-83
2022/11/28 06:58:55;;;;;;;13.90;7.80;;;;;;;;;;4928050;28;20484;-84
2022/11/28 07:01:22;;;;;;;18.45;9.25;;;;;;;;;;4928652;28;20036;-84
2022/11/28 07:03:48;;;;;;;19.77;8.82;;;;;;;;;;4929929;29;20047;-84
2022/11/28 07:06:15;;;;;;;14.45;8.18;;;;;;;;;;4913406;28;20035;-83
2022/11/28 07:08:41;;;;;;;20.98;8.50;;;;;;;;;;4917034;28;20040;-83
2022/11/28 07:11:19;;;;;;;18.50;8.43;;;;;;;;;;4932020;29;20039;-84
2022/11/28 07:13:45;;;;;;;27.02;13.13;;;;;;;;;;4933236;29;20546;-84
2022/11/28 07:16:18;;;;;;;17.77;8.68;;;;;;;;;;4916090;29;20035;-84
2022/11/28 07:18:43;;;;;;;19.85;9.55;;;;;;;;;;4927757;29;20095;-84
2022/11/28 07:21:09;;;;;;;18.17;9.27;;;;;;;;;;4915810;29;20123;-84
2022/11/28 07:23:55;;;;;;;19.27;9.13;;;;;;;;;;4928665;29;20036;-84
2022/11/28 07:26:21;;;;;;;17.65;8.60;;;;;;;;;;4870881;29;20815;-83
2022/11/28 07:28:47;;;;;;;20.98;9.50;;;;;;;;;;4873240;29;20041;-84
2022/11/28 07:31:16;;;;;;;23.80;9.27;;;;;;;;;;4840596;29;20486;-84
2022/11/28 07:33:42;;;;;;;17.35;8.82;;;;;;;;;;4851994;29;20045;-84
2022/11/28 07:36:19;;;;;;;17.02;9.43;;;;;;;;;;4861892;29;20041;-84
2022/11/28 07:38:46;;;;;;;19.33;8.65;;;;;;;;;;4858429;29;20135;-84
2022/11/28 07:41:12;;;;;;;18.55;9.23;;;;;;;;;;4857357;29;20029;-83
2022/11/28 07:43:39;;;;;;;17.33;8.93;;;;;;;;;;4857688;29;20041;-84
2022/11/28 07:46:06;;;;;;;18.88;9.25;;;;;;;;;;4873733;29;20048;-83
2022/11/28 07:48:32;;;;;;;20.63;9.32;;;;;;;;;;4857944;29;20536;-82
2022/11/28 07:51:00;;;;;;;20.58;10.10;;;;;;;;;;4865675;29;20073;-83
2022/11/28 07:53:25;;;;;;;22.73;8.80;;;;;;;;;;4845046;29;20672;-83
2022/11/28 07:55:51;;;;;;;17.13;9.10;;;;;;;;;;4873030;29;20041;-82
2022/11/28 07:58:37;;;;;;;20.85;9.98;;;;;;;;;;4852437;29;20576;-83
2022/11/28 08:01:18;;;;;;;16.23;8.80;;;;;;;;;;4821090;29;20042;-83
2022/11/28 08:03:44;;;;;;;17.48;8.90;;;;;;;;;;4836090;29;20528;-83
2022/11/28 08:06:13;;;;;;;18.20;9.60;;;;;;;;;;4848193;29;20065;-84
2022/11/28 08:08:42;;;;;;;17.38;9.35;;;;;;;;;;4857813;29;20397;-83
2022/11/28 08:11:09;;;;;;;22.20;10.55;;;;;;;;;;4853997;29;20536;-83
2022/11/28 08:13:35;;;;;;;16.95;8.82;;;;;;;;;;4862416;29;20041;-84
2022/11/28 08:16:11;;;;;;;18.90;9.57;;;;;;;;;;4846872;29;20516;-83
2022/11/28 08:18:36;;;;;;;18.77;9.07;;;;;;;;;;4871030;29;20447;-84
2022/11/28 08:21:06;;;;;;;18.55;9.35;;;;;;;;;;4859204;29;20040;-83
2022/11/28 08:23:33;;;;;;;21.10;9.40;;;;;;;;;;4856400;29;20052;-83
2022/11/28 08:26:00;;;;;;;18.77;8.55;;;;;;;;;;4831928;29;20053;-83
2022/11/28 08:28:29;;;;;;;17.35;8.98;;;;;;;;;;4855163;29;20088;-84
2022/11/28 08:30:54;;;;;;;20.08;8.73;;;;;;;;;;4843375;29;20070;-84
2022/11/28 08:33:21;;;;;;;18.45;9.65;;;;;;;;;;4863611;29;20045;-85
2022/11/28 08:35:47;;;;;;;19.20;9.27;;;;;;;;;;4859032;29;20811;-83
2022/11/28 08:38:12;;;;;;;20.92;9.18;;;;;;;;;;4892376;29;20277;-84
2022/11/28 08:40:37;;;;;;;18.48;9.13;;;;;;;;;;4919089;29;20090;-83
2022/11/28 08:43:03;;;;;;;19.85;10.10;;;;;;;;;;4921822;28;20042;-84
2022/11/28 08:45:28;;;;;;;20.35;9.65;;;;;;;;;;4916910;29;20058;-83
2022/11/28 08:47:54;;;;;;;19.33;9.73;;;;;;;;;;4933539;28;20038;-84
2022/11/28 08:50:19;;;;;;;20.05;10.32;;;;;;;;;;4916689;29;20129;-84
2022/11/28 08:52:45;;;;;;;18.45;9.15;;;;;;;;;;4930940;29;20333;-83
2022/11/28 08:55:10;;;;;;;20.77;9.60;;;;;;;;;;4904699;29;20058;-83
2022/11/28 08:57:35;;;;;;;18.77;9.13;;;;;;;;;;4920251;29;20034;-82
2022/11/28 09:00:01;;;;;;;17.67;8.88;;;;;;;;;;4932899;29;20106;-83
2022/11/28 09:02:26;;;;;;;23.40;9.65;;;;;;;;;;4918578;28;20118;-83
2022/11/28 09:04:52;;;;;;;17.70;9.00;;;;;;;;;;4931870;29;20396;-83
2022/11/28 09:07:17;;;;;;;17.52;9.00;;;;;;;;;;4917439;29;20055;-83
2022/11/28 09:09:43;;;;;;;17.40;8.75;;;;;;;;;;4919730;29;20038;-83
2022/11/28 09:12:08;;;;;;;17.98;9.68;;;;;;;;;;4917630;29;20558;-83
2022/11/28 09:14:33;;;;;;;19.88;9.82;;;;;;;;;;4932293;29;20048;-84
2022/11/28 09:16:59;;;;;;;19.17;9.27;;;;;;;;;;4916527;29;20035;-83
2022/11/28 09:19:24;;;;;;;21.83;9.90;;;;;;;;;;4904567;29;20046;-84
2022/11/28 09:21:49;;;;;;;20.25;10.05;;;;;;;;;;4920637;29;20068;-83
2022/11/28 09:24:18;;;;;;;29.85;13.85;;;;;;;;;;4932840;29;20039;-83
2022/11/28 09:26:43;;;;;;;18.08;8.98;;;;;;;;;;4903759;28;20113;-83
2022/11/28 09:29:08;;;;;;;19.25;9.60;;;;;;;;;;4933782;29;20555;-84
2022/11/28 09:31:34;;;;;;;19.02;9.48;;;;;;;;;;4922225;29;20043;-84
2022/11/28 09:33:59;;;;;;;16.90;8.57;;;;;;;;;;4932644;28;20667;-84
2022/11/28 09:36:27;;;;;;;18.95;9.20;;;;;;;;;;4930394;28;20035;-84
2022/11/28 09:38:52;;;;;;;18.00;8.85;;;;;;;;;;4930257;29;20862;-83
2022/11/28 09:41:29;;;;;;;20.10;9.60;;;;;;;;;;4919292;29;20062;-84
2022/11/28 09:44:02;;;;;;;19.25;9.55;;;;;;;;;;4931728;29;20035;-84
2022/11/28 09:46:33;;;;;;;19.98;9.75;;;;;;;;;;4915761;29;20054;-84
2022/11/28 09:49:13;;;;;;;18.38;9.48;;;;;;;;;;4931490;29;20036;-84
2022/11/28 09:51:56;;;;;;;18.85;9.07;;;;;;;;;;4948659;28;20053;-84
2022/11/28 09:54:32;;;;;;;18.05;8.48;;;;;;;;;;4948414;28;20039;-84
2022/11/28 09:56:57;;;;;;;17.27;9.30;;;;;;;;;;4930540;29;20154;-83
2022/11/28 09:59:26;;;;;;;20.15;9.32;;;;;;;;;;4920504;29;20111;-83
2022/11/28 10:02:13;;;;;;;18.77;8.95;;;;;;;;;;4931272;29;20123;-85
2022/11/28 10:05:03;;;;;;;20.33;9.27;;;;;;;;;;4925349;28;20069;-83
2022/11/28 10:07:55;;;;;;;19.33;9.02;;;;;;;;;;4944367;28;20059;-83
2022/11/28 10:10:34;;;;;;;19.63;9.60;;;;;;;;;;4932993;28;20036;-85
2022/11/28 10:13:36;;;;;;;18.77;9.60;;;;;;;;;;4946135;28;20966;-83
2022/11/28 10:16:01;;;;;;;23.33;9.45;;;;;;;;;;4916469;28;20035;-83
2022/11/28 10:18:37;;;;;;;26.25;11.25;;;;;;;;;;4932814;28;20048;-84
2022/11/28 10:21:22;;;;;;;22.08;11.15;;;;;;;;;;4921039;28;20431;-84
2022/11/28 10:23:49;;;;;;;21.48;9.75;;;;;;;;;;4906777;28;20567;-84
2022/11/28 10:26:35;;;;;;;18.98;9.05;;;;;;;;;;4933568;28;20102;-85
2022/11/28 10:29:09;;;;;;;20.52;9.98;;;;;;;;;;4933843;29;21785;-84
2022/11/28 10:31:43;;;;;;;18.17;9.73;;;;;;;;;;4929532;29;20040;-85
2022/11/28 10:34:21;;;;;;;20.27;9.18;;;;;;;;;;4920516;28;20111;-83
2022/11/28 10:37:12;;;;;;;21.10;9.85;;;;;;;;;;4945015;28;20055;-83
2022/11/28 10:39:42;;;;;;;25.65;12.43;;;;;;;;;;4921531;28;20041;-84
2022/11/28 10:42:20;;;;;;;21.42;9.95;;;;;;;;;;4915730;29;20119;-84
2022/11/28 10:45:00;;;;;;;;;;;;;;;;;;4946225;28;20035;-84
2022/11/28 10:47:54;;;;;;;22.67;9.55;;;;;;;;;;4945293;28;20383;-84
2022/11/28 10:50:37;;;;;;;19.80;9.57;;;;;;;;;;4941802;28;20040;-84
2022/11/28 10:53:10;;;;;;;21.50;9.95;;;;;;;;;;4943986;28;20058;-84
2022/11/28 10:56:13;;;;;;;23.00;10.35;;;;;;;;;;4943794;28;20912;-84
2022/11/28 10:58:49;;;;;;;20.80;9.73;;;;;;;;;;4913413;29;20541;-84
2022/11/28 11:01:14;;;;;;;20.52;9.48;;;;;;;;;;4911833;29;20038;-84
2022/11/28 11:03:40;;;;;;;17.50;9.15;;;;;;;;;;4929803;28;20035;-84
2022/11/28 11:06:06;;;;;;;18.35;10.02;;;;;;;;;;4929606;29;20047;-85
2022/11/28 11:08:39;;;;;;;21.40;9.73;;;;;;;;;;4916744;28;20031;-85
2022/11/28 11:11:23;;;;;;;19.73;9.57;;;;;;;;;;4943577;28;20040;-86
2022/11/28 11:13:54;;;;;;;24.30;10.30;;;;;;;;;;4946225;28;20051;-84
2022/11/28 11:16:20;;;;;;;20.90;9.18;;;;;;;;;;4926642;29;20055;-85
2022/11/28 11:18:45;;;;;;;17.95;8.77;;;;;;;;;;4910076;29;20040;-85
2022/11/28 11:21:25;;;;;;;22.13;10.65;;;;;;;;;;4929961;29;20557;-86
2022/11/28 11:24:10;;;;;;;18.45;9.45;;;;;;;;;;4903722;29;20051;-85
2022/11/28 11:26:39;;;;;;;19.75;9.80;;;;;;;;;;4930021;28;20518;-86
2022/11/28 11:29:05;;;;;;;18.25;8.43;;;;;;;;;;4932659;29;20036;-85
2022/11/28 11:31:33;;;;;;;21.77;9.38;;;;;;;;;;4929813;29;20066;-83
2022/11/28 11:34:06;;;;;;;18.45;9.23;;;;;;;;;;4922844;29;20484;-85
2022/11/28 11:36:36;;;;;;;17.83;8.93;;;;;;;;;;4910546;28;20530;-83
2022/11/28 11:39:10;;;;;;;18.27;9.10;;;;;;;;;;4918228;29;20050;-84
2022/11/28 11:41:40;;;;;;;17.02;8.43;;;;;;;;;;4924856;29;20036;-83
2022/11/28 11:44:15;;;;;;;20.60;9.80;;;;;;;;;;4910950;29;20091;-84
2022/11/28 11:46:57;;;;;;;17.17;8.68;;;;;;;;;;4946275;28;20040;-83
2022/11/28 11:49:40;;;;;;;18.98;9.38;;;;;;;;;;4942296;28;20565;-84
2022/11/28 11:52:14;;;;;;;17.45;8.18;;;;;;;;;;4948645;28;20491;-83
2022/11/28 11:55:05;;;;;;;18.50;8.57;;;;;;;;;;4934073;28;20036;-86
2022/11/28 11:57:41;;;;;;;17.35;8.45;;;;;;;;;;4919026;29;20043;-83
2022/11/28 12:00:14;;;;;;;19.42;9.23;;;;;;;;;;4935303;28;20899;-84
2022/11/28 12:02:52;;;;;;;20.70;9.55;;;;;;;;;;4916733;29;20036;-84
2022/11/28 12:05:38;;;;;;;16.17;8.02;;;;;;;;;;4911812;28;20434;-84
2022/11/28 12:08:13;;;;;;;17.95;9.10;;;;;;;;;;4929675;29;20050;-85
2022/11/28 12:10:51;;;;;;;17.63;9.48;;;;;;;;;;4918512;29;20031;-85
2022/11/28 12:13:22;;;;;;;19.42;9.18;;;;;;;;;;4920762;29;20064;-85
2022/11/28 12:16:10;;;;;;;19.88;9.05;;;;;;;;;;4929746;29;20028;-84
2022/11/28 12:18:41;;;;;;;18.42;8.73;;;;;;;;;;4933323;29;20519;-85
2022/11/28 12:21:21;;;;;;;16.20;8.27;;;;;;;;;;4953045;28;20044;-84
2022/11/28 12:24:08;;;;;;;15.68;7.72;;;;;;;;;;4933809;28;20990;-84
2022/11/28 12:26:45;;;;;;;16.80;8.45;;;;;;;;;;4935259;28;20044;-85
2022/11/28 12:29:17;;;;;;;17.50;8.23;;;;;;;;;;4934398;28;20091;-86
2022/11/28 12:31:50;;;;;;;20.40;8.88;;;;;;;;;;4931288;29;20059;-83
2022/11/28 12:34:37;;;;;;;17.17;8.32;;;;;;;;;;4933309;28;20043;-84
2022/11/28 12:37:08;;;;;;;17.30;8.68;;;;;;;;;;4948782;28;20047;-84
2022/11/28 12:39:46;;;;;;;15.38;7.72;;;;;;;;;;4946557;28;20480;-84
2022/11/28 12:42:33;;;;;;;16.85;8.73;;;;;;;;;;4948543;28;20090;-87
2022/11/28 12:45:26;;;;;;;17.90;7.90;;;;;;;;;;4950544;28;20090;-84
2022/11/28 12:48:12;;;;;;;15.30;8.13;;;;;;;;;;4945720;28;20032;-85
2022/11/28 12:50:59;;;;;;;16.25;7.88;;;;;;;;;;4935626;28;20111;-84
2022/11/28 12:53:31;;;;;;;14.57;7.53;;;;;;;;;;4875338;29;20051;-84
2022/11/28 12:56:18;;;;;;;19.17;8.43;;;;;;;;;;4862135;29;20117;-83
2022/11/28 12:59:04;;;;;;;14.30;7.45;;;;;;;;;;4878408;29;20039;-84
2022/11/28 13:02:00;;;;;;;15.35;7.78;;;;;;;;;;4875902;29;20363;-84
2022/11/28 13:04:46;;;;;;;14.27;7.10;;;;;;;;;;4858994;29;20509;-84
2022/11/28 13:08:14;;;;;;;14.75;6.97;;;;;;;;;;4874656;29;20041;-85
2022/11/28 13:11:00;;;;;;;15.23;7.68;;;;;;;;;;4798891;29;20038;-84
2022/11/28 13:13:30;;;;;;;15.88;7.55;;;;;;;;;;4800260;29;20054;-85
2022/11/28 13:16:10;;;;;;;14.85;7.40;;;;;;;;;;4802955;29;20071;-85
2022/11/28 13:18:46;;;;;;;13.73;6.95;;;;;;;;;;4815290;29;21550;-86
2022/11/28 13:21:21;;;;;;;16.25;8.63;;;;;;;;;;4805390;29;20546;-85
2022/11/28 13:24:17;;;;;;;15.13;7.60;;;;;;;;;;4815699;29;20101;-84
2022/11/28 13:27:24;;;;;;;14.88;7.80;;;;;;;;;;4806980;29;20574;-84
2022/11/28 13:29:49;;;;;;;14.82;7.97;;;;;;;;;;4821622;29;20036;-85
2022/11/28 13:32:34;;;;;;;19.73;9.43;;;;;;;;;;4875365;29;20043;-84
2022/11/28 13:35:00;;;;;;;20.50;9.23;;;;;;;;;;4896894;29;20047;-84
2022/11/28 13:37:42;;;;;;;17.05;8.68;;;;;;;;;;4875173;29;20036;-83
2022/11/28 13:40:16;;;;;;;18.80;8.82;;;;;;;;;;4882906;29;20040;-84
2022/11/28 13:43:00;;;;;;;17.27;8.68;;;;;;;;;;4948884;28;20036;-84
2022/11/28 13:45:33;;;;;;;18.27;9.25;;;;;;;;;;4923393;28;20059;-84
2022/11/28 13:47:59;;;;;;;20.17;10.02;;;;;;;;;;4921198;29;20031;-84
2022/11/28 13:50:31;;;;;;;20.42;9.52;;;;;;;;;;4908159;29;20118;-83
2022/11/28 13:53:16;;;;;;;19.75;9.27;;;;;;;;;;4917585;28;20098;-84
2022/11/28 13:55:45;;;;;;;17.38;9.25;;;;;;;;;;4922630;28;20035;-84
2022/11/28 13:58:22;;;;;;;20.65;10.15;;;;;;;;;;4907376;28;20043;-84
2022/11/28 14:01:20;;;;;;;17.08;9.82;;;;;;;;;;4944040;28;20055;-83
2022/11/28 14:03:51;;;;;;;21.33;9.73;;;;;;;;;;4899606;28;20039;-85
2022/11/28 14:06:19;;;;;;;18.92;10.57;;;;;;;;;;4912327;28;20039;-85
2022/11/28 14:08:56;;;;;;;18.70;9.73;;;;;;;;;;4893040;29;20031;-84
2022/11/28 14:12:20;;;;;;;16.08;8.80;;;;;;;;;;4913265;29;20519;-84
2022/11/28 14:15:04;;;;;;;18.98;9.18;;;;;;;;;;4844242;29;20596;-84
2022/11/28 14:17:51;;;;;;;18.65;9.40;;;;;;;;;;4871900;29;20258;-84
2022/11/28 14:20:51;;;;;;;21.60;10.25;;;;;;;;;;4865524;29;20064;-85
2022/11/28 14:23:22;;;;;;;21.38;11.27;;;;;;;;;;4874472;29;20040;-84
2022/11/28 14:25:49;;;;;;;20.02;9.93;;;;;;;;;;4906062;28;20439;-85
2022/11/28 14:28:18;;;;;;;19.55;10.25;;;;;;;;;;4915829;29;20035;-84
2022/11/28 14:30:44;;;;;;;17.92;9.50;;;;;;;;;;4920771;28;20105;-85
2022/11/28 14:33:18;;;;;;;18.90;9.75;;;;;;;;;;4944134;28;20110;-84
2022/11/28 14:35:49;;;;;;;22.17;10.60;;;;;;;;;;4932118;28;20495;-85
2022/11/28 14:38:30;;;;;;;21.02;9.88;;;;;;;;;;4932965;28;20046;-85
2022/11/28 14:40:58;;;;;;;23.60;11.70;;;;;;;;;;4946109;28;20869;-85
2022/11/28 14:43:23;;;;;;;21.13;10.00;;;;;;;;;;4927257;29;20685;-85
2022/11/28 14:45:50;;;;;;;20.77;10.75;;;;;;;;;;4930264;28;20055;-85
2022/11/28 14:48:20;;;;;;;23.43;10.80;;;;;;;;;;4909322;29;20047;-84
2022/11/28 14:50:47;;;;;;;21.17;10.25;;;;;;;;;;4932423;28;20135;-86
2022/11/28 14:53:34;;;;;;;22.43;11.50;;;;;;;;;;4928384;28;20059;-84
2022/11/28 14:56:28;;;;;;;24.80;11.30;;;;;;;;;;4928720;29;20122;-84
2022/11/28 14:59:00;;;;;;;18.88;10.38;;;;;;;;;;4923850;29;20043;-85
2022/11/28 15:02:21;;;;;;;26.00;11.68;;;;;;;;;;4915899;29;20610;-85
2022/11/28 15:05:04;;;;;;;22.23;11.23;;;;;;;;;;4899603;28;20404;-84